Time;durP1;ratioP1;P1;durP2;ratioP2;P2;SDS_P1;SDS_P2;PMS_P1;PMS_P2;Temp;Humidity;BMP_temperature;BMP_pressure;BME280_temperature;BME280_humidity;BME280_pressure;Samples;Min_cycle;Max_cycle;Signal;HPM_P1;HPM_P2
2023/08/07 00:01:55;;;;;;;0.30;0.20;;;23.80;46.60;;;;;;6278607;28;20047;-69
2023/08/07 00:04:57;;;;;;;0.22;0.22;;;23.80;46.60;;;;;;6296757;28;20057;-69
2023/08/07 00:07:59;;;;;;;0.52;0.30;;;23.80;46.70;;;;;;6296361;28;20549;-69
2023/08/07 00:11:09;;;;;;;0.30;0.30;;;23.80;46.60;;;;;;6278341;28;20041;-69
2023/08/07 00:14:11;;;;;;;0.20;0.20;;;23.80;46.50;;;;;;6278885;28;20032;-69
2023/08/07 00:17:12;;;;;;;0.30;0.30;;;23.80;46.50;;;;;;6296656;28;20409;-69
2023/08/07 00:20:12;;;;;;;0.30;0.30;;;23.80;46.50;;;;;;6296673;28;20062;-69
2023/08/07 00:23:13;;;;;;;0.60;0.32;;;23.80;46.50;;;;;;6296610;28;20032;-68
2023/08/07 00:26:14;;;;;;;0.20;0.20;;;23.80;46.50;;;;;;6296397;28;20032;-69
2023/08/07 00:29:15;;;;;;;0.28;0.20;;;23.80;46.50;;;;;;6296253;28;20107;-69
2023/08/07 00:32:15;;;;;;;0.50;0.22;;;23.80;46.60;;;;;;6295668;28;20056;-70
2023/08/07 00:35:16;;;;;;;0.40;0.30;;;23.80;46.50;;;;;;6296083;28;20097;-69
2023/08/07 00:38:17;;;;;;;0.20;0.20;;;23.80;46.60;;;;;;6278526;28;20067;-70
2023/08/07 00:41:18;;;;;;;0.20;0.20;;;23.80;46.40;;;;;;6296266;28;20029;-70
2023/08/07 00:44:19;;;;;;;0.20;0.20;;;23.80;46.50;;;;;;6295741;28;20024;-69
2023/08/07 00:47:19;;;;;;;0.40;0.20;;;23.80;46.50;;;;;;6295559;28;20097;-70
2023/08/07 00:50:20;;;;;;;0.30;0.30;;;23.80;46.50;;;;;;6295826;28;20060;-69
2023/08/07 00:53:22;;;;;;;0.20;0.20;;;23.80;46.40;;;;;;6277676;28;20033;-69
2023/08/07 00:56:24;;;;;;;0.35;0.35;;;23.80;46.40;;;;;;6277398;28;20111;-69
2023/08/07 00:59:25;;;;;;;0.50;0.32;;;23.80;46.50;;;;;;6277497;28;20535;-68
2023/08/07 01:02:26;;;;;;;0.13;0.10;;;23.80;46.50;;;;;;6295062;28;20138;-69
2023/08/07 01:05:26;;;;;;;0.30;0.30;;;23.80;46.50;;;;;;6295172;28;20445;-69
2023/08/07 01:08:28;;;;;;;0.25;0.25;;;23.80;46.50;;;;;;6294874;28;20020;-69
2023/08/07 01:11:35;;;;;;;0.25;0.25;;;23.80;46.50;;;;;;6295218;28;20602;-69
2023/08/07 01:14:50;;;;;;;0.20;0.20;;;23.80;46.40;;;;;;6300215;28;20024;-69
2023/08/07 01:17:53;;;;;;;0.22;0.22;;;23.80;46.50;;;;;;6277272;28;20115;-69
2023/08/07 01:20:54;;;;;;;0.30;0.30;;;23.80;46.50;;;;;;6276839;28;20028;-70
2023/08/07 01:23:55;;;;;;;0.63;0.30;;;23.60;47.80;;;;;;6276723;28;20553;-70
2023/08/07 01:27:00;;;;;;;0.20;0.20;;;23.30;48.70;;;;;;6294776;28;20423;-70
2023/08/07 01:30:07;;;;;;;0.50;0.32;;;23.20;49.40;;;;;;6276585;28;20122;-70
2023/08/07 01:33:27;;;;;;;0.30;0.20;;;23.10;50.00;;;;;;6294842;28;20028;-69
2023/08/07 01:36:29;;;;;;;0.28;0.28;;;23.00;50.30;;;;;;6276747;28;20040;-69
2023/08/07 01:39:31;;;;;;;0.50;0.30;;;22.90;50.40;;;;;;6276392;28;20112;-69
2023/08/07 01:42:32;;;;;;;0.80;0.30;;;22.90;50.70;;;;;;6294417;28;20359;-70
2023/08/07 01:45:33;;;;;;;0.75;0.30;;;22.90;50.90;;;;;;6294556;28;20075;-69
2023/08/07 01:48:34;;;;;;;0.30;0.22;;;22.90;50.90;;;;;;6294374;28;20020;-70
2023/08/07 01:51:34;;;;;;;1.17;0.43;;;22.90;51.10;;;;;;6293988;28;20028;-69
2023/08/07 01:54:35;;;;;;;0.30;0.30;;;22.90;51.20;;;;;;6293700;28;20420;-68
2023/08/07 01:57:36;;;;;;;0.40;0.40;;;22.80;51.10;;;;;;6294117;28;20474;-70
2023/08/07 02:00:36;;;;;;;0.22;0.22;;;22.80;51.50;;;;;;6294237;28;20037;-70
2023/08/07 02:03:37;;;;;;;0.22;0.22;;;22.80;51.50;;;;;;6293360;28;20076;-69
2023/08/07 02:06:38;;;;;;;0.20;0.20;;;22.80;51.60;;;;;;6293680;28;20040;-69
2023/08/07 02:09:38;;;;;;;0.30;0.30;;;22.80;51.60;;;;;;6275741;28;20039;-69
2023/08/07 02:12:40;;;;;;;0.20;0.20;;;22.80;51.80;;;;;;6275930;28;20503;-69
2023/08/07 02:15:40;;;;;;;0.30;0.30;;;22.80;51.80;;;;;;6295621;28;20524;-69
2023/08/07 02:18:41;;;;;;;0.25;0.25;;;22.80;51.90;;;;;;6293898;28;20020;-68
2023/08/07 02:21:42;;;;;;;0.20;0.20;;;22.80;52.00;;;;;;6293322;28;20094;-69
2023/08/07 02:24:43;;;;;;;0.30;0.30;;;22.80;52.00;;;;;;6293926;28;20115;-69
2023/08/07 02:27:43;;;;;;;0.30;0.30;;;22.80;52.20;;;;;;6275137;28;20028;-69
2023/08/07 02:30:48;;;;;;;0.30;0.25;;;22.80;52.20;;;;;;6293420;28;20370;-69
2023/08/07 02:33:49;;;;;;;0.40;0.30;;;22.70;52.20;;;;;;6293183;28;20025;-69
2023/08/07 02:36:50;;;;;;;0.50;0.30;;;22.70;52.10;;;;;;6293574;28;20342;-69
2023/08/07 02:39:51;;;;;;;0.20;0.20;;;22.70;52.30;;;;;;6293690;28;20032;-69
2023/08/07 02:42:52;;;;;;;0.30;0.30;;;22.70;52.60;;;;;;6275282;28;20167;-68
2023/08/07 02:45:52;;;;;;;0.20;0.20;;;22.70;52.50;;;;;;6275298;28;20036;-70
2023/08/07 02:48:53;;;;;;;0.30;0.30;;;22.70;52.20;;;;;;6274927;28;20040;-69
2023/08/07 02:51:54;;;;;;;0.25;0.25;;;22.70;52.30;;;;;;6293233;28;20076;-69
2023/08/07 02:54:55;;;;;;;0.30;0.20;;;22.70;52.60;;;;;;6274966;28;20028;-69
2023/08/07 02:57:55;;;;;;;0.30;0.30;;;22.70;52.90;;;;;;6300664;28;20040;-69
2023/08/07 03:00:56;;;;;;;0.52;0.30;;;22.70;52.60;;;;;;6301391;28;20040;-70
2023/08/07 03:03:57;;;;;;;0.28;0.28;;;22.70;52.30;;;;;;6300763;28;20098;-69
2023/08/07 03:06:58;;;;;;;0.30;0.30;;;22.70;52.40;;;;;;6282766;28;20060;-69
2023/08/07 03:09:58;;;;;;;0.20;0.20;;;22.70;52.90;;;;;;6301311;28;20039;-69
2023/08/07 03:12:59;;;;;;;0.43;0.22;;;22.70;52.60;;;;;;6301382;28;20057;-70
2023/08/07 03:16:05;;;;;;;0.40;0.30;;;22.70;52.70;;;;;;6301157;28;20047;-70
2023/08/07 03:19:06;;;;;;;0.38;0.30;;;22.60;52.50;;;;;;6301117;28;20021;-69
2023/08/07 03:22:07;;;;;;;0.80;0.13;;;22.70;52.80;;;;;;6283378;28;20573;-69
2023/08/07 03:25:08;;;;;;;0.20;0.20;;;22.60;52.50;;;;;;6300813;28;20024;-70
2023/08/07 03:28:09;;;;;;;0.32;0.30;;;22.60;52.60;;;;;;6283034;28;20036;-69
2023/08/07 03:31:10;;;;;;;0.30;0.30;;;22.60;52.60;;;;;;6300908;28;20045;-70
2023/08/07 03:34:10;;;;;;;0.20;0.20;;;22.60;52.60;;;;;;6301686;28;20017;-70
2023/08/07 03:37:11;;;;;;;0.17;0.15;;;22.60;52.70;;;;;;6282897;28;20116;-69
2023/08/07 03:40:12;;;;;;;0.30;0.30;;;22.60;52.70;;;;;;6283236;28;20436;-69
2023/08/07 03:43:13;;;;;;;0.20;0.20;;;22.60;52.80;;;;;;6302263;28;20123;-70
2023/08/07 03:46:13;;;;;;;0.52;0.40;;;22.60;52.90;;;;;;6301144;28;20409;-69
2023/08/07 03:49:15;;;;;;;0.20;0.20;;;22.60;52.80;;;;;;6300689;28;20053;-69
2023/08/07 03:52:17;;;;;;;0.20;0.20;;;22.60;52.90;;;;;;6282957;28;20040;-69
2023/08/07 03:55:18;;;;;;;0.30;0.30;;;22.60;52.80;;;;;;6282764;28;20036;-69
2023/08/07 03:58:19;;;;;;;0.40;0.30;;;22.60;52.90;;;;;;6301102;28;20037;-69
2023/08/07 04:01:19;;;;;;;0.50;0.50;;;22.60;53.00;;;;;;6301217;28;20036;-69
2023/08/07 04:04:20;;;;;;;0.30;0.30;;;22.60;53.00;;;;;;6300643;28;20075;-69
2023/08/07 04:07:22;;;;;;;0.20;0.20;;;22.60;52.90;;;;;;6280979;28;20064;-69
2023/08/07 04:10:22;;;;;;;0.20;0.20;;;22.60;53.10;;;;;;6278008;28;20136;-70
2023/08/07 04:13:23;;;;;;;0.20;0.20;;;22.60;53.00;;;;;;6297139;28;20029;-69
2023/08/07 04:16:24;;;;;;;0.40;0.40;;;22.60;53.00;;;;;;6296133;28;20036;-69
2023/08/07 04:19:25;;;;;;;0.30;0.30;;;22.60;53.00;;;;;;6278429;28;20440;-69
2023/08/07 04:22:25;;;;;;;0.30;0.30;;;22.60;53.00;;;;;;6296399;28;20036;-69
2023/08/07 04:25:26;;;;;;;0.20;0.20;;;22.60;53.00;;;;;;6278174;28;20142;-69
2023/08/07 04:28:30;;;;;;;0.28;0.20;;;22.60;53.10;;;;;;6295817;28;20261;-69
2023/08/07 04:31:31;;;;;;;0.40;0.40;;;22.60;53.10;;;;;;6296216;28;20029;-70
2023/08/07 04:34:31;;;;;;;0.32;0.30;;;22.60;53.10;;;;;;6296243;28;20056;-69
2023/08/07 04:37:32;;;;;;;0.20;0.20;;;22.60;53.10;;;;;;6278127;28;20040;-69
2023/08/07 04:40:33;;;;;;;1.25;0.32;;;22.60;53.10;;;;;;6295780;28;20508;-69
2023/08/07 04:43:34;;;;;;;0.20;0.20;;;22.60;53.10;;;;;;6296117;28;20652;-69
2023/08/07 04:46:34;;;;;;;0.20;0.20;;;22.60;53.10;;;;;;6277574;28;20528;-69
2023/08/07 04:49:35;;;;;;;0.20;0.20;;;22.50;53.10;;;;;;6295720;28;20055;-69
2023/08/07 04:52:36;;;;;;;0.22;0.22;;;22.60;53.20;;;;;;6295948;28;20028;-69
2023/08/07 04:55:36;;;;;;;0.20;0.20;;;22.60;53.20;;;;;;6295677;28;20028;-69
2023/08/07 04:58:37;;;;;;;0.30;0.30;;;22.50;53.10;;;;;;6295430;28;20040;-69
2023/08/07 05:01:38;;;;;;;0.30;0.30;;;22.50;53.30;;;;;;6287816;28;20035;-69
2023/08/07 05:04:39;;;;;;;0.20;0.20;;;22.50;53.20;;;;;;6252636;28;20055;-69
2023/08/07 05:07:40;;;;;;;0.60;0.32;;;22.50;53.20;;;;;;6252651;28;20398;-70
2023/08/07 05:10:40;;;;;;;0.22;0.20;;;22.50;53.20;;;;;;6294782;28;20583;-70
2023/08/07 05:13:41;;;;;;;0.43;0.20;;;22.50;53.30;;;;;;6295281;28;20024;-68
2023/08/07 05:16:42;;;;;;;0.30;0.30;;;22.50;53.30;;;;;;6289274;28;20047;-68
2023/08/07 05:19:53;;;;;;;0.30;0.30;;;22.50;53.30;;;;;;6297654;28;20366;-68
2023/08/07 05:23:13;;;;;;;0.20;0.20;;;22.50;53.40;;;;;;6304791;28;20017;-68
2023/08/07 05:26:16;;;;;;;0.50;0.40;;;22.60;53.60;;;;;;6317946;28;20171;-68
2023/08/07 05:29:17;;;;;;;0.40;0.40;;;22.50;53.60;;;;;;6296565;28;20052;-68
2023/08/07 05:32:18;;;;;;;1.08;0.50;;;22.50;53.70;;;;;;6276673;28;20548;-68
2023/08/07 05:35:19;;;;;;;0.52;0.50;;;22.60;53.70;;;;;;6277852;28;20051;-68
2023/08/07 05:38:19;;;;;;;0.50;0.40;;;22.50;54.00;;;;;;6295171;28;20029;-69
2023/08/07 05:41:20;;;;;;;2.10;0.93;;;22.50;54.40;;;;;;6276557;28;20127;-68
2023/08/07 05:44:22;;;;;;;0.47;0.40;;;22.50;54.60;;;;;;6279855;28;20039;-68
2023/08/07 05:47:23;;;;;;;2.55;0.90;;;22.50;54.60;;;;;;6297338;28;20040;-67
2023/08/07 05:50:23;;;;;;;1.52;0.77;;;22.50;54.70;;;;;;6295197;28;20035;-69
2023/08/07 05:53:24;;;;;;;1.55;0.90;;;22.50;54.70;;;;;;6293774;28;20060;-68
2023/08/07 05:56:25;;;;;;;1.63;0.90;;;22.50;54.80;;;;;;6294103;28;20078;-70
2023/08/07 05:59:26;;;;;;;0.75;0.40;;;22.50;55.00;;;;;;6292581;28;20032;-68
2023/08/07 06:02:27;;;;;;;0.55;0.35;;;22.50;54.50;;;;;;6253722;28;20082;-67
2023/08/07 06:05:27;;;;;;;2.78;0.70;;;22.50;54.10;;;;;;6253965;28;20049;-67
2023/08/07 06:08:28;;;;;;;1.63;0.73;;;22.50;54.10;;;;;;6271562;28;20037;-67
2023/08/07 06:11:29;;;;;;;1.70;0.82;;;22.50;54.50;;;;;;6271864;28;20484;-68
2023/08/07 06:14:30;;;;;;;2.50;0.65;;;22.50;54.30;;;;;;6295515;28;20028;-68
2023/08/07 06:17:31;;;;;;;0.90;0.52;;;22.50;54.30;;;;;;6276970;28;20115;-68
2023/08/07 06:20:31;;;;;;;2.88;1.02;;;22.50;54.60;;;;;;6295188;28;20107;-67
2023/08/07 06:23:35;;;;;;;1.08;0.73;;;22.50;54.60;;;;;;6278330;28;20405;-67
2023/08/07 06:26:36;;;;;;;1.30;0.55;;;22.50;54.60;;;;;;6296048;28;20033;-66
2023/08/07 06:29:42;;;;;;;4.55;0.75;;;22.50;54.80;;;;;;6296135;28;20094;-67
2023/08/07 06:32:43;;;;;;;4.57;0.88;;;22.50;54.90;;;;;;6295256;28;20060;-67
2023/08/07 06:35:44;;;;;;;1.23;0.70;;;22.50;55.00;;;;;;6295876;28;20054;-68
2023/08/07 06:38:44;;;;;;;5.28;0.70;;;22.50;55.00;;;;;;6277966;28;20063;-68
2023/08/07 06:41:45;;;;;;;2.50;0.80;;;22.50;55.00;;;;;;6295915;28;20040;-67
2023/08/07 06:44:47;;;;;;;2.00;1.08;;;22.50;55.00;;;;;;6295881;28;20405;-66
2023/08/07 06:47:47;;;;;;;1.00;0.70;;;22.50;55.10;;;;;;6295724;28;20405;-67
2023/08/07 06:50:50;;;;;;;1.73;0.70;;;22.50;55.10;;;;;;6295674;28;20029;-67
2023/08/07 06:53:50;;;;;;;3.03;0.70;;;22.50;54.90;;;;;;6295658;28;20390;-66
2023/08/07 06:56:51;;;;;;;0.82;0.60;;;22.50;54.70;;;;;;6295657;28;20108;-68
2023/08/07 06:59:52;;;;;;;1.77;0.70;;;22.50;55.00;;;;;;6295613;28;20443;-68
2023/08/07 07:02:53;;;;;;;0.85;0.63;;;22.50;55.00;;;;;;6276630;28;20032;-67
2023/08/07 07:05:54;;;;;;;1.27;0.70;;;22.50;55.00;;;;;;6294096;28;20075;-67
2023/08/07 07:08:55;;;;;;;1.10;0.80;;;22.50;55.60;;;;;;6277334;28;20416;-67
2023/08/07 07:11:56;;;;;;;0.70;0.70;;;22.50;54.60;;;;;;6277455;28;20036;-67
2023/08/07 07:14:57;;;;;;;0.80;0.55;;;22.50;54.60;;;;;;6295554;28;20535;-67
2023/08/07 07:17:57;;;;;;;0.95;0.50;;;22.50;54.60;;;;;;6277216;28;20052;-67
2023/08/07 07:21:00;;;;;;;2.63;0.80;;;22.50;54.60;;;;;;6295590;28;20056;-68
2023/08/07 07:24:02;;;;;;;1.15;0.63;;;22.50;54.80;;;;;;6295295;28;20032;-68
2023/08/07 07:27:03;;;;;;;0.98;0.82;;;22.50;54.70;;;;;;6295694;28;20029;-69
2023/08/07 07:30:05;;;;;;;3.17;0.55;;;22.50;54.80;;;;;;6295161;28;20513;-68
2023/08/07 07:33:06;;;;;;;1.35;1.02;;;22.50;54.80;;;;;;6260584;28;20047;-68
2023/08/07 07:36:07;;;;;;;1.85;0.90;;;22.50;54.80;;;;;;6276197;28;20035;-69
2023/08/07 07:39:09;;;;;;;2.47;1.40;;;22.50;54.80;;;;;;6295094;28;20032;-69
2023/08/07 07:42:10;;;;;;;3.65;0.90;;;22.50;54.80;;;;;;6277751;28;20040;-68
2023/08/07 07:45:11;;;;;;;1.33;0.95;;;22.50;54.80;;;;;;6300218;28;20555;-67
2023/08/07 07:48:12;;;;;;;1.58;0.80;;;22.50;54.90;;;;;;6299742;28;20386;-69
2023/08/07 07:51:12;;;;;;;1.10;1.00;;;22.50;54.90;;;;;;6299532;28;20394;-68
2023/08/07 07:54:13;;;;;;;2.03;1.02;;;22.50;54.80;;;;;;6299662;28;20441;-68
2023/08/07 07:57:14;;;;;;;3.70;1.08;;;22.50;54.80;;;;;;6299379;28;20025;-68
2023/08/07 08:00:15;;;;;;;1.92;1.10;;;22.50;54.80;;;;;;6281630;28;20058;-69
2023/08/07 08:03:15;;;;;;;1.17;0.82;;;22.50;54.90;;;;;;6298991;28;20112;-68
2023/08/07 08:06:16;;;;;;;1.08;0.90;;;22.50;54.90;;;;;;6281003;28;20490;-68
2023/08/07 08:09:17;;;;;;;4.07;1.00;;;22.50;54.90;;;;;;6299163;28;20025;-68
2023/08/07 08:12:17;;;;;;;0.98;0.88;;;22.50;54.70;;;;;;6298921;28;20024;-68
2023/08/07 08:15:18;;;;;;;1.42;1.00;;;22.50;54.90;;;;;;6299041;28;20043;-69
2023/08/07 08:18:19;;;;;;;2.85;1.02;;;22.50;55.00;;;;;;6280933;28;20033;-70
2023/08/07 08:21:19;;;;;;;2.47;0.93;;;22.40;54.90;;;;;;6298290;28;20040;-68
2023/08/07 08:24:20;;;;;;;3.42;1.15;;;22.40;54.80;;;;;;6298915;28;20040;-68
2023/08/07 08:27:21;;;;;;;4.75;1.30;;;22.40;54.80;;;;;;6298872;28;20107;-69
2023/08/07 08:30:22;;;;;;;1.83;0.90;;;22.40;54.80;;;;;;6296052;28;20028;-68
2023/08/07 08:33:23;;;;;;;1.30;0.98;;;22.40;54.80;;;;;;6298608;28;20509;-68
2023/08/07 08:36:24;;;;;;;1.20;0.85;;;22.40;54.80;;;;;;6298681;28;20025;-68
2023/08/07 08:39:24;;;;;;;4.40;1.10;;;22.40;54.90;;;;;;6298597;28;20441;-68
2023/08/07 08:42:26;;;;;;;5.03;1.20;;;22.40;55.50;;;;;;6295859;28;20555;-69
2023/08/07 08:45:27;;;;;;;1.45;1.00;;;22.50;54.90;;;;;;6298627;28;20033;-69
2023/08/07 08:48:31;;;;;;;2.80;1.10;;;22.50;54.80;;;;;;6280721;28;20028;-68
2023/08/07 08:51:32;;;;;;;1.25;0.90;;;22.50;54.90;;;;;;6297904;28;20021;-68
2023/08/07 08:54:33;;;;;;;1.77;0.90;;;22.50;54.90;;;;;;6297834;28;20070;-68
2023/08/07 08:57:35;;;;;;;2.28;1.00;;;22.50;55.00;;;;;;6297962;28;20028;-68
2023/08/07 09:00:36;;;;;;;2.08;0.80;;;22.50;55.00;;;;;;6298395;28;20082;-68
2023/08/07 09:03:37;;;;;;;2.20;1.10;;;22.50;55.00;;;;;;6279517;28;20040;-68
2023/08/07 09:06:38;;;;;;;4.60;1.00;;;22.40;54.90;;;;;;6280058;28;20032;-67
2023/08/07 09:09:40;;;;;;;1.95;1.10;;;22.40;54.90;;;;;;6297434;28;20035;-69
2023/08/07 09:12:47;;;;;;;1.83;0.90;;;22.50;54.90;;;;;;6279874;28;20512;-72
2023/08/07 09:15:50;;;;;;;2.15;1.30;;;22.50;54.90;;;;;;6279833;28;20111;-70
2023/08/07 09:18:51;;;;;;;2.88;1.02;;;22.50;55.00;;;;;;6279624;28;20036;-68
2023/08/07 09:21:52;;;;;;;1.73;1.15;;;22.50;54.90;;;;;;6297589;28;20028;-68
2023/08/07 09:24:52;;;;;;;1.90;1.20;;;22.50;54.90;;;;;;6297371;28;20030;-71
2023/08/07 09:27:55;;;;;;;1.92;1.00;;;22.40;54.80;;;;;;6279407;28;20503;-68
2023/08/07 09:30:56;;;;;;;2.60;1.00;;;22.40;54.90;;;;;;6296965;28;20044;-68
2023/08/07 09:34:06;;;;;;;3.38;1.00;;;22.40;54.90;;;;;;6279132;28;20028;-68
2023/08/07 09:37:10;;;;;;;1.73;1.00;;;22.40;54.90;;;;;;6296947;28;20039;-68
2023/08/07 09:40:12;;;;;;;2.83;1.10;;;22.40;55.10;;;;;;6297172;28;20020;-68
2023/08/07 09:43:21;;;;;;;3.33;0.88;;;22.40;54.90;;;;;;6296902;28;20032;-68
2023/08/07 09:46:21;;;;;;;1.77;1.00;;;22.40;54.90;;;;;;6296977;28;20048;-68
2023/08/07 09:49:32;;;;;;;2.33;1.30;;;22.40;55.10;;;;;;6279027;28;20036;-68
2023/08/07 09:52:32;;;;;;;3.53;1.38;;;22.40;54.90;;;;;;6296831;28;20446;-69
2023/08/07 09:55:33;;;;;;;1.42;1.10;;;22.40;54.90;;;;;;6296782;28;20024;-69
2023/08/07 09:58:33;;;;;;;5.93;1.10;;;22.50;55.10;;;;;;6296644;28;20033;-68
2023/08/07 10:01:38;;;;;;;2.65;1.13;;;22.50;55.30;;;;;;6296547;28;20060;-69
2023/08/07 10:04:40;;;;;;;7.32;1.20;;;22.50;55.60;;;;;;6296234;28;20048;-68
2023/08/07 10:07:41;;;;;;;5.32;1.30;;;22.50;55.70;;;;;;6295761;28;20390;-68
2023/08/07 10:10:43;;;;;;;5.88;1.60;;;22.50;56.30;;;;;;6278114;28;20036;-68
2023/08/07 10:13:45;;;;;;;2.90;1.10;;;22.50;56.10;;;;;;6296187;28;20059;-68
2023/08/07 10:16:46;;;;;;;6.03;1.38;;;22.50;55.60;;;;;;6278190;28;20119;-68
2023/08/07 10:19:47;;;;;;;3.92;1.40;;;22.50;55.60;;;;;;6296538;28;20025;-68
2023/08/07 10:22:49;;;;;;;5.53;1.38;;;22.50;55.60;;;;;;6278209;28;20401;-69
2023/08/07 10:25:51;;;;;;;5.28;1.48;;;22.40;55.50;;;;;;6278295;28;20039;-68
2023/08/07 10:28:53;;;;;;;4.07;1.50;;;22.40;55.60;;;;;;6296012;28;20025;-68
2023/08/07 10:31:56;;;;;;;5.82;1.42;;;22.40;55.60;;;;;;6295949;28;20056;-68
2023/08/07 10:34:57;;;;;;;1.95;1.13;;;22.40;55.60;;;;;;6277981;28;20473;-68
2023/08/07 10:38:09;;;;;;;3.80;1.27;;;22.40;55.60;;;;;;6296128;28;20443;-68
2023/08/07 10:41:14;;;;;;;2.28;1.15;;;22.40;55.60;;;;;;6296111;28;20042;-68
2023/08/07 10:44:23;;;;;;;4.10;1.17;;;22.40;56.30;;;;;;6295818;28;20430;-68
2023/08/07 10:47:34;;;;;;;2.13;1.10;;;22.50;56.50;;;;;;6275324;28;20037;-68
2023/08/07 10:50:48;;;;;;;2.70;1.08;;;22.50;55.90;;;;;;6295594;28;20052;-68
2023/08/07 10:53:51;;;;;;;3.40;1.15;;;22.50;55.90;;;;;;6295697;28;20043;-68
2023/08/07 10:56:54;;;;;;;1.63;1.17;;;22.40;55.80;;;;;;6295803;28;20024;-67
2023/08/07 10:59:59;;;;;;;2.03;1.30;;;22.40;55.80;;;;;;6295757;28;20059;-67
2023/08/07 11:03:01;;;;;;;4.25;1.42;;;22.40;55.90;;;;;;6292076;28;20090;-67
2023/08/07 11:06:02;;;;;;;2.08;1.15;;;22.40;55.90;;;;;;6266944;28;20123;-67
2023/08/07 11:09:06;;;;;;;2.65;1.02;;;22.40;55.80;;;;;;6270513;28;20039;-66
2023/08/07 11:12:07;;;;;;;4.53;1.30;;;22.40;55.80;;;;;;6270375;28;20029;-68
2023/08/07 11:15:12;;;;;;;1.95;0.98;;;22.40;55.80;;;;;;6270659;28;20032;-68
2023/08/07 11:18:13;;;;;;;2.22;1.10;;;22.40;55.50;;;;;;6273303;28;20024;-68
2023/08/07 11:21:14;;;;;;;2.08;0.90;;;22.40;55.40;;;;;;6275663;28;20441;-67
2023/08/07 11:24:16;;;;;;;2.88;0.95;;;22.40;55.70;;;;;;6275553;28;20112;-68
2023/08/07 11:27:17;;;;;;;1.77;0.90;;;22.40;55.50;;;;;;6257601;28;20063;-67
2023/08/07 11:30:17;;;;;;;1.17;1.00;;;22.40;55.60;;;;;;6275231;28;20033;-67
2023/08/07 11:33:23;;;;;;;1.30;0.90;;;22.40;55.60;;;;;;6275128;28;20079;-68
2023/08/07 11:36:24;;;;;;;2.22;1.23;;;22.40;55.80;;;;;;6272235;28;20060;-68
2023/08/07 11:39:26;;;;;;;1.75;0.82;;;22.40;55.80;;;;;;6257138;28;20075;-68
2023/08/07 11:42:28;;;;;;;7.38;1.10;;;22.40;55.90;;;;;;6275127;28;20039;-69
2023/08/07 11:45:29;;;;;;;6.65;1.20;;;22.40;55.90;;;;;;6265782;28;20033;-69
2023/08/07 11:48:31;;;;;;;2.58;1.38;;;22.40;56.30;;;;;;6275193;28;20072;-69
2023/08/07 11:51:32;;;;;;;2.10;0.77;;;22.40;56.10;;;;;;6274895;28;20025;-69
2023/08/07 11:54:33;;;;;;;1.73;0.90;;;22.50;56.00;;;;;;6257337;28;20558;-70
2023/08/07 11:57:34;;;;;;;2.13;0.88;;;22.50;56.00;;;;;;6274937;28;20025;-69
2023/08/07 12:00:35;;;;;;;1.80;0.80;;;22.50;55.80;;;;;;6257199;28;20033;-69
2023/08/07 12:03:38;;;;;;;2.63;1.10;;;22.50;56.40;;;;;;6279105;28;20044;-69
2023/08/07 12:06:56;;;;;;;2.47;1.02;;;22.50;55.60;;;;;;6299328;28;20028;-69
2023/08/07 12:09:56;;;;;;;6.95;1.00;;;22.50;55.60;;;;;;6287554;28;20045;-69
2023/08/07 12:13:04;;;;;;;6.80;1.23;;;22.50;56.00;;;;;;6274314;28;20143;-70
2023/08/07 12:16:07;;;;;;;6.40;1.08;;;22.60;56.50;;;;;;6295725;28;20362;-69
2023/08/07 12:19:08;;;;;;;2.70;1.02;;;22.60;56.30;;;;;;6298558;28;20044;-70
2023/08/07 12:22:11;;;;;;;3.85;1.00;;;22.60;56.10;;;;;;6299320;28;20075;-69
2023/08/07 12:25:12;;;;;;;3.83;0.93;;;22.60;56.10;;;;;;6296788;28;20127;-70
2023/08/07 12:28:13;;;;;;;3.63;0.80;;;22.60;56.40;;;;;;6298275;28;20104;-69
2023/08/07 12:31:14;;;;;;;2.95;1.10;;;22.50;56.30;;;;;;6297536;28;20112;-70
2023/08/07 12:34:16;;;;;;;2.85;0.93;;;22.50;57.00;;;;;;6298680;28;20409;-67
2023/08/07 12:37:16;;;;;;;1.75;0.77;;;22.50;56.20;;;;;;6297670;28;20016;-68
2023/08/07 12:40:20;;;;;;;1.50;0.80;;;22.50;56.20;;;;;;6298022;28;20024;-67
2023/08/07 12:43:21;;;;;;;1.10;0.70;;;22.50;56.10;;;;;;6297686;28;20036;-68
2023/08/07 12:46:22;;;;;;;2.08;0.93;;;22.50;56.10;;;;;;6297811;28;20078;-68
2023/08/07 12:49:24;;;;;;;1.80;0.80;;;22.50;56.10;;;;;;6294834;28;20036;-68
2023/08/07 12:52:25;;;;;;;1.20;0.77;;;22.50;56.10;;;;;;6297172;28;20074;-68
2023/08/07 12:55:26;;;;;;;2.17;0.80;;;22.50;56.10;;;;;;6296540;28;20033;-68
2023/08/07 12:58:29;;;;;;;2.17;1.02;;;22.50;56.10;;;;;;6296805;28;20027;-68
2023/08/07 13:01:29;;;;;;;2.65;1.25;;;22.50;56.00;;;;;;6296585;28;20510;-68
2023/08/07 13:04:32;;;;;;;5.50;1.35;;;22.50;56.00;;;;;;6296919;28;20055;-68
2023/08/07 13:07:33;;;;;;;3.33;1.27;;;22.50;56.20;;;;;;6296262;28;20055;-67
2023/08/07 13:10:34;;;;;;;4.40;1.83;;;22.50;56.20;;;;;;6288863;28;20033;-68
2023/08/07 13:13:34;;;;;;;3.83;1.27;;;22.50;56.20;;;;;;6296408;28;20037;-67
2023/08/07 13:16:36;;;;;;;5.05;1.55;;;22.50;56.20;;;;;;6296734;28;20111;-71
2023/08/07 13:19:37;;;;;;;6.18;1.60;;;22.50;56.30;;;;;;6295109;28;20424;-70
2023/08/07 13:22:38;;;;;;;1.98;1.10;;;22.50;56.20;;;;;;6296390;28;20025;-68
2023/08/07 13:25:40;;;;;;;4.38;1.13;;;22.50;56.10;;;;;;6296685;28;20025;-68
2023/08/07 13:28:40;;;;;;;3.25;1.52;;;22.50;56.10;;;;;;6292174;28;20075;-68
2023/08/07 13:31:41;;;;;;;2.75;1.20;;;22.50;56.10;;;;;;6295705;28;20037;-68
2023/08/07 13:34:42;;;;;;;2.97;1.30;;;22.50;56.10;;;;;;6296268;28;20064;-68
2023/08/07 13:37:44;;;;;;;3.92;1.40;;;22.50;56.10;;;;;;6295047;28;20086;-67
2023/08/07 13:40:45;;;;;;;3.03;1.25;;;22.50;56.00;;;;;;6296531;28;20040;-68
2023/08/07 13:43:45;;;;;;;4.07;1.50;;;22.50;56.00;;;;;;6295977;28;20536;-67
2023/08/07 13:46:47;;;;;;;2.00;1.30;;;22.50;55.90;;;;;;6295107;28;20037;-67
2023/08/07 13:49:49;;;;;;;2.38;1.00;;;22.50;55.90;;;;;;6295842;28;20036;-68
2023/08/07 13:52:49;;;;;;;2.03;1.20;;;22.50;55.80;;;;;;6294661;28;20032;-67
2023/08/07 13:55:50;;;;;;;3.72;1.23;;;22.50;55.70;;;;;;6296337;28;20055;-67
2023/08/07 13:58:51;;;;;;;2.80;1.38;;;22.40;55.70;;;;;;6295560;28;20378;-67
2023/08/07 14:01:52;;;;;;;2.28;1.10;;;22.50;55.80;;;;;;6295986;28;20036;-67
2023/08/07 14:04:52;;;;;;;2.30;1.20;;;22.40;55.70;;;;;;6295577;28;20040;-68
2023/08/07 14:07:53;;;;;;;3.35;1.50;;;22.40;55.80;;;;;;6295449;28;20024;-68
2023/08/07 14:10:54;;;;;;;2.65;1.10;;;22.40;55.80;;;;;;6280103;28;20059;-68
2023/08/07 14:13:54;;;;;;;2.20;1.23;;;22.40;55.80;;;;;;6294725;28;20070;-68
2023/08/07 14:16:57;;;;;;;2.17;1.10;;;22.40;55.70;;;;;;6308949;28;20111;-67
2023/08/07 14:19:57;;;;;;;2.50;1.05;;;22.40;55.70;;;;;;6294999;28;20566;-67
2023/08/07 14:23:01;;;;;;;2.55;1.20;;;22.40;55.70;;;;;;6296458;28;20050;-69
2023/08/07 14:26:02;;;;;;;1.27;1.05;;;22.40;55.70;;;;;;6295068;28;20021;-69
2023/08/07 14:29:04;;;;;;;3.25;1.17;;;22.40;55.80;;;;;;6293487;28;20063;-69
2023/08/07 14:32:05;;;;;;;3.72;1.05;;;22.40;55.80;;;;;;6293307;28;20044;-68
2023/08/07 14:35:06;;;;;;;2.67;1.30;;;22.40;55.80;;;;;;6294607;28;20020;-69
2023/08/07 14:38:07;;;;;;;2.28;0.93;;;22.40;55.80;;;;;;6293023;28;20177;-69
2023/08/07 14:41:08;;;;;;;2.08;1.30;;;22.40;55.80;;;;;;6294814;28;20032;-69
2023/08/07 14:44:08;;;;;;;4.05;1.52;;;22.40;55.80;;;;;;6292862;28;20036;-69
2023/08/07 14:47:09;;;;;;;2.75;1.20;;;22.40;55.70;;;;;;6287825;28;20124;-69
2023/08/07 14:50:10;;;;;;;2.95;1.27;;;22.40;55.60;;;;;;6293476;28;20409;-69
2023/08/07 14:53:10;;;;;;;2.42;0.88;;;22.40;55.60;;;;;;6294427;28;20090;-69
2023/08/07 14:56:11;;;;;;;2.83;1.20;;;22.40;55.50;;;;;;6285506;28;20029;-69
2023/08/07 14:59:12;;;;;;;6.10;1.30;;;22.40;55.40;;;;;;6292433;28;20035;-69
2023/08/07 15:02:13;;;;;;;3.17;1.40;;;22.40;55.20;;;;;;6293455;28;20039;-68
2023/08/07 15:05:14;;;;;;;5.50;1.55;;;22.40;55.50;;;;;;6284324;28;20145;-68
2023/08/07 15:08:15;;;;;;;5.22;1.35;;;22.40;55.30;;;;;;6292999;28;20068;-68
2023/08/07 15:11:16;;;;;;;5.45;1.45;;;22.40;55.40;;;;;;6275285;28;20039;-69
2023/08/07 15:14:17;;;;;;;3.05;1.20;;;22.40;55.20;;;;;;6295085;28;20032;-70
2023/08/07 15:17:18;;;;;;;2.58;1.40;;;22.40;55.10;;;;;;6275908;28;20112;-68
2023/08/07 15:20:19;;;;;;;4.20;1.50;;;22.40;55.00;;;;;;6292759;28;20040;-69
2023/08/07 15:23:22;;;;;;;2.58;1.23;;;22.40;55.10;;;;;;6294311;28;20029;-68
2023/08/07 15:26:23;;;;;;;4.32;1.52;;;22.40;55.20;;;;;;6292732;28;20124;-69
2023/08/07 15:29:23;;;;;;;3.70;1.30;;;22.40;55.30;;;;;;6292512;28;20028;-68
2023/08/07 15:32:24;;;;;;;6.57;1.52;;;22.40;55.30;;;;;;6292540;28;20067;-69
2023/08/07 15:35:25;;;;;;;3.83;1.30;;;22.40;55.00;;;;;;6293376;28;20033;-68
2023/08/07 15:38:26;;;;;;;3.15;1.30;;;22.40;55.00;;;;;;6292473;28;20029;-69
2023/08/07 15:41:27;;;;;;;3.85;1.50;;;22.40;55.10;;;;;;6292695;28;20032;-68
2023/08/07 15:44:27;;;;;;;4.53;1.25;;;22.40;55.10;;;;;;6292486;28;20509;-68
2023/08/07 15:47:28;;;;;;;2.58;1.17;;;22.40;55.30;;;;;;6291493;28;20472;-68